In Rescue
 
Open Full Screen Window  High Contrast Mode
Wind Gusting 00 knots
06
May 20, 2019 1:28 PM CDT
Weather Information
Wind Direction
  350 °
Wind Speed
  06 kt (7 mph)
Wind Gust
  00 kt (0 mph)
Altimeter
30.13 in
Visibility
10 SM
Temperature
14° C
57° F
Dewpoint
01° C
34° F
Humidity
41%
1hr Rain Fall
00.00 in.
24hr Rain Fall
00.00 in.
Sky Condition
Clear
VFR

METAR KCDD 201828Z AUTO 35006KT 10SM CLR 14/01 A3013 RMK AO2

FAA Disclaimer: The data displayed is for advisory purposes only and is not to be used for flight planning or operations.